Zefyros — SZHX — position and weather

sailwx.info

Track history (hours):
 
Tides and Currents Weather Stations Pressure Air Temp Water Temp Dewpoint Dewpoint Depression Visibility Wind Speed Wind Dir Waves Ship Positions

Zefyros

Last reported at 2017-Sep-18 11:48 UTC. Time now 2017-Sep-21 18:02 UTC.
Position N 36°46' E 024°32'.

Length 77 m; draft 4.5 m.

Type: Ship. MMSI: 240485000.

Date/timePositionNaut miles runAvg speedWind from/ knotsBaromVisibWave heightAir tempDewpointWater temp
2017-Sep-18 11:48N 36°46' E 024°32'310.8
2017-Sep-18 11:30N 36°47' E 024°28'4 7.7
2017-Sep-18 10:58N 36°44' E 024°24'35 1.7
2017-Sep-17 14:11N 37°14' E 024°48'211.6
2017-Sep-17 14:00N 37°15' E 024°50'611.7
2017-Sep-17 13:30N 37°20' E 024°55'611.2
2017-Sep-17 13:00N 37°24' E 024°59'2 4.7
2017-Sep-17 12:29N 37°26' E 024°56'0 0.0
2017-Sep-17 11:11N 37°26' E 024°56'0 0.0
2017-Sep-17 11:00N 37°26' E 024°56'0 0.0
2017-Sep-17 09:02N 37°26' E 024°56'0 0.2
2017-Sep-17 09:00N 37°26' E 024°56'0 0.0
2017-Sep-17 08:30N 37°26' E 024°56'0 0.0
2017-Sep-17 07:58N 37°26' E 024°56'0 0.0
2017-Sep-17 07:30N 37°26' E 024°56'0 0.0
2017-Sep-17 07:00N 37°26' E 024°56'0 0.0
2017-Sep-17 06:30N 37°26' E 024°56'0 0.0
2017-Sep-17 06:00N 37°26' E 024°56'0 0.0
2017-Sep-17 05:30N 37°26' E 024°56'0 0.0
2017-Sep-17 04:59N 37°26' E 024°56'0 0.0
2017-Sep-17 04:30N 37°26' E 024°56'0 0.0
2017-Sep-17 03:57N 37°26' E 024°56'0 0.0
2017-Sep-17 03:30N 37°26' E 024°56'0 0.0
2017-Sep-17 02:56N 37°26' E 024°56'0 0.0
2017-Sep-17 02:25N 37°26' E 024°56'0 0.0
2017-Sep-17 02:00N 37°26' E 024°56'0 0.0
2017-Sep-17 01:30N 37°26' E 024°56'0 0.0
2017-Sep-17 00:54N 37°26' E 024°56'0 0.0
2017-Sep-16 23:28N 37°26' E 024°56'0 0.0
2017-Sep-16 23:00N 37°26' E 024°56'0 0.0
2017-Sep-16 22:30N 37°26' E 024°56'0 0.0
2017-Sep-16 22:00N 37°26' E 024°56'0 0.0
2017-Sep-16 21:30N 37°26' E 024°56'0 0.0
2017-Sep-16 21:00N 37°26' E 024°56'0 0.0
2017-Sep-16 20:30N 37°26' E 024°56'0 0.0
2017-Sep-16 19:59N 37°26' E 024°56'0 0.0
2017-Sep-16 19:30N 37°26' E 024°56'0 0.0
2017-Sep-16 19:00N 37°26' E 024°56'0 0.0
2017-Sep-16 18:30N 37°26' E 024°56'0 0.0
2017-Sep-16 17:49N 37°26' E 024°56'0 0.0
2017-Sep-16 17:30N 37°26' E 024°56'0 0.0
2017-Sep-16 17:00N 37°26' E 024°56'0 0.0
2017-Sep-16 16:30N 37°26' E 024°56'0 0.0
2017-Sep-16 16:00N 37°26' E 024°56'0 0.0
2017-Sep-16 15:30N 37°26' E 024°56'0 0.0
2017-Sep-16 14:56N 37°26' E 024°56'0 0.0
2017-Sep-16 14:30N 37°26' E 024°56'0 0.0
2017-Sep-16 13:54N 37°26' E 024°56'0 0.0
2017-Sep-16 13:30N 37°26' E 024°56'0 0.0
2017-Sep-16 13:00N 37°26' E 024°56'0 0.0
2017-Sep-16 12:27N 37°26' E 024°56'0 0.0
2017-Sep-16 12:00N 37°26' E 024°56'0 0.0
2017-Sep-16 11:27N 37°26' E 024°56'0 0.0
2017-Sep-16 10:31N 37°26' E 024°56'0 0.2
2017-Sep-16 10:29N 37°26' E 024°56'4 7.3
2017-Sep-16 10:00N 37°28' E 025°00'510.9
2017-Sep-16 09:30N 37°30' E 025°06'3 6.4
2017-Sep-16 09:00N 37°32' E 025°09'0 0.0
2017-Sep-16 08:30N 37°32' E 025°09'0 0.0
2017-Sep-16 08:00N 37°32' E 025°09'0 0.0
2017-Sep-16 07:30N 37°32' E 025°09'0 0.0
2017-Sep-16 07:00N 37°32' E 025°09'0 0.0
2017-Sep-16 06:30N 37°32' E 025°09'0 0.0
2017-Sep-16 06:00N 37°32' E 025°09'0 0.0
2017-Sep-16 05:30N 37°32' E 025°09'0 0.0
2017-Sep-16 05:00N 37°32' E 025°09'0 0.0
2017-Sep-16 04:30N 37°32' E 025°09'0 0.0
2017-Sep-16 04:00N 37°32' E 025°09'0 0.0
2017-Sep-16 03:30N 37°32' E 025°09'0 0.0
2017-Sep-16 03:00N 37°32' E 025°09'0 0.0
2017-Sep-16 02:30N 37°32' E 025°09'0 0.0
2017-Sep-16 02:00N 37°32' E 025°09'0 0.0
2017-Sep-16 01:30N 37°32' E 025°09'0 0.0
2017-Sep-16 01:00N 37°32' E 025°09'0 0.0
2017-Sep-16 00:30N 37°32' E 025°09'0 0.0
2017-Sep-16 00:00N 37°32' E 025°09'0 0.0
2017-Sep-15 23:31N 37°32' E 025°09'0 0.0
2017-Sep-15 23:01N 37°32' E 025°09'0 0.0
2017-Sep-15 22:30N 37°32' E 025°09'0 0.0
2017-Sep-15 22:00N 37°32' E 025°09'1 2.5
2017-Sep-15 21:30N 37°31' E 025°10'510.9
2017-Sep-15 21:01N 37°29' E 025°16'3 6.2
2017-Sep-15 20:30N 37°28' E 025°20'0 0.0
2017-Sep-15 20:00N 37°28' E 025°20'0 0.0
2017-Sep-15 19:30N 37°28' E 025°20'0 0.0
2017-Sep-15 19:00N 37°28' E 025°20'0 0.0
2017-Sep-15 18:30N 37°28' E 025°20'0 0.0
2017-Sep-15 18:01N 37°28' E 025°20'0 0.0
2017-Sep-15 17:31N 37°28' E 025°20'0 0.0
2017-Sep-15 17:00N 37°28' E 025°20'1 1.7
2017-Sep-15 16:30N 37°27' E 025°18'5 9.2
2017-Sep-15 16:00N 37°23' E 025°17'510.3
2017-Sep-15 15:30N 37°18' E 025°14'510.8
2017-Sep-15 15:00N 37°13' E 025°11'611.0
2017-Sep-15 14:30N 37°08' E 025°08'3 0.7
2017-Sep-15 10:01N 37°05' E 025°09'0 9.3
2017-Sep-15 10:00N 37°05' E 025°08'4 8.3
2017-Sep-15 09:29N 37°09' E 025°11'511.2
2017-Sep-15 09:00N 37°10' E 025°17'510.8
2017-Sep-15 08:30N 37°06' E 025°22'0 0.4
2017-Sep-15 08:01N 37°06' E 025°22'0 0.5
2017-Sep-15 07:30N 37°06' E 025°22'0 0.0
2017-Sep-15 07:01N 37°06' E 025°22'0 0.0
2017-Sep-15 06:31N 37°06' E 025°22'0 0.0
2017-Sep-15 06:00N 37°06' E 025°22'0 0.0
2017-Sep-15 05:31N 37°06' E 025°22'0 0.1
2017-Sep-15 05:01N 37°06' E 025°22'1 1.0
2017-Sep-15 04:31N 37°06' E 025°22'0 0.0
2017-Sep-15 04:00N 37°06' E 025°22'0 0.0
2017-Sep-15 03:31N 37°06' E 025°22'0 0.0
2017-Sep-15 03:00N 37°06' E 025°22'0 0.0
2017-Sep-15 02:31N 37°06' E 025°22'0 0.0
2017-Sep-15 02:00N 37°06' E 025°22'0 0.0
2017-Sep-15 01:30N 37°06' E 025°22'0 0.0
2017-Sep-15 01:01N 37°06' E 025°22'0 0.0
2017-Sep-15 00:30N 37°06' E 025°22'0 0.0
2017-Sep-15 00:01N 37°06' E 025°22'0 0.0
2017-Sep-14 23:31N 37°06' E 025°22'0 0.0
2017-Sep-14 23:00N 37°06' E 025°22'0 0.0
2017-Sep-14 22:30N 37°06' E 025°22'0 0.0
2017-Sep-14 22:00N 37°06' E 025°22'1 1.7
2017-Sep-14 21:31N 37°06' E 025°21'2 4.3
2017-Sep-14 21:01N 37°07' E 025°19'4 8.6
2017-Sep-14 20:31N 37°03' E 025°18'  
2017-Sep-12 16:10N 35°26' E 024°40'411.6
2017-Sep-12 15:48N 35°25' E 024°35'311.6
2017-Sep-12 15:30N 35°23' E 024°31'2 4.6
2017-Sep-12 15:00N 35°22' E 024°29'0 0.0
2017-Sep-12 14:30N 35°22' E 024°29'0 0.0
2017-Sep-12 14:01N 35°22' E 024°29'0 0.0
2017-Sep-12 13:30N 35°22' E 024°29'0 0.0
2017-Sep-12 13:00N 35°22' E 024°29'0 0.0
2017-Sep-12 12:30N 35°22' E 024°29'0 0.0
2017-Sep-12 12:01N 35°22' E 024°29'0 0.0
2017-Sep-12 11:30N 35°22' E 024°29'0 0.0
2017-Sep-12 11:00N 35°22' E 024°29'0 0.0
2017-Sep-12 10:30N 35°22' E 024°29'0 0.0
2017-Sep-12 10:00N 35°22' E 024°29'0 0.0
2017-Sep-12 09:30N 35°22' E 024°29'0 0.0
2017-Sep-12 09:00N 35°22' E 024°29'0 0.0
2017-Sep-12 08:30N 35°22' E 024°29'0 0.0
2017-Sep-12 08:00N 35°22' E 024°29'0 0.0
2017-Sep-12 07:30N 35°22' E 024°29'0 0.0
2017-Sep-12 07:01N 35°22' E 024°29'0 0.0
2017-Sep-12 06:30N 35°22' E 024°29'0 0.0
2017-Sep-12 06:00N 35°22' E 024°29'0 0.0
2017-Sep-12 05:30N 35°22' E 024°29'0 0.0
2017-Sep-12 05:00N 35°22' E 024°29'0 0.0
2017-Sep-12 04:30N 35°22' E 024°29'0 0.0
2017-Sep-12 04:00N 35°22' E 024°29'0 0.0
2017-Sep-12 03:30N 35°22' E 024°29'0 0.0
2017-Sep-12 03:00N 35°22' E 024°29'0 0.0
2017-Sep-12 02:30N 35°22' E 024°29'0 0.0
2017-Sep-12 02:00N 35°22' E 024°29'0 0.0
2017-Sep-12 01:30N 35°22' E 024°29'0 0.0
2017-Sep-12 01:00N 35°22' E 024°29'0 0.0
2017-Sep-12 00:30N 35°22' E 024°29'0 0.0
2017-Sep-12 00:00N 35°22' E 024°29'0 0.0
2017-Sep-11 23:30N 35°22' E 024°29'0 0.0
2017-Sep-11 23:00N 35°22' E 024°29'0 0.0
2017-Sep-11 22:30N 35°22' E 024°29'0 0.0
2017-Sep-11 22:00N 35°22' E 024°29'0 0.0
2017-Sep-11 21:30N 35°22' E 024°29'0 0.0
2017-Sep-11 21:00N 35°22' E 024°29'0 0.0
2017-Sep-11 20:30N 35°22' E 024°29'0 0.0
2017-Sep-11 20:00N 35°22' E 024°29'0 0.0
2017-Sep-11 19:30N 35°22' E 024°29'0 0.0
2017-Sep-11 19:00N 35°22' E 024°29'0 0.0
2017-Sep-11 18:30N 35°22' E 024°29'0 0.0
2017-Sep-11 18:00N 35°22' E 024°29'0 0.0
2017-Sep-11 17:30N 35°22' E 024°29'0 0.0
2017-Sep-11 17:00N 35°22' E 024°29'0 0.0
2017-Sep-11 16:30N 35°22' E 024°29'0 0.0
2017-Sep-11 16:00N 35°22' E 024°29'0 0.0
2017-Sep-11 15:30N 35°22' E 024°29'0 0.0
2017-Sep-11 15:00N 35°22' E 024°29'0 0.0
2017-Sep-11 14:30N 35°22' E 024°29'0 0.0
2017-Sep-11 14:00N 35°22' E 024°29'0 0.0
2017-Sep-11 13:30N 35°22' E 024°29'0 0.0
2017-Sep-11 13:00N 35°22' E 024°29'0 0.0
2017-Sep-11 12:30N 35°22' E 024°29'0 0.0
2017-Sep-11 12:00N 35°22' E 024°29'0 0.0
2017-Sep-11 11:30N 35°22' E 024°29'0 0.0
2017-Sep-11 11:00N 35°22' E 024°29'0 0.0
2017-Sep-11 10:30N 35°22' E 024°29'0 0.0
2017-Sep-11 10:00N 35°22' E 024°29'0 0.0
2017-Sep-11 09:30N 35°22' E 024°29'0 0.0
2017-Sep-11 09:00N 35°22' E 024°29'0 0.0
2017-Sep-11 08:30N 35°22' E 024°29'0 0.0
2017-Sep-11 08:00N 35°22' E 024°29'0 0.0
2017-Sep-11 07:30N 35°22' E 024°29'0 0.0
2017-Sep-11 07:00N 35°22' E 024°29'0 0.0
2017-Sep-11 06:30N 35°22' E 024°29'0 0.0
2017-Sep-11 06:00N 35°22' E 024°29'0 0.0
2017-Sep-11 05:30N 35°22' E 024°29'0 0.0
2017-Sep-11 05:00N 35°22' E 024°29'0 0.0
2017-Sep-11 04:30N 35°22' E 024°29'0 0.0
2017-Sep-11 04:00N 35°22' E 024°29'0 0.0
2017-Sep-11 03:30N 35°22' E 024°29'0 0.0
2017-Sep-11 03:00N 35°22' E 024°29'0 0.0
2017-Sep-11 02:30N 35°22' E 024°29'0 0.0
2017-Sep-11 02:00N 35°22' E 024°29'0 0.0
2017-Sep-11 01:30N 35°22' E 024°29'0 0.0
2017-Sep-11 01:00N 35°22' E 024°29'0 0.0
2017-Sep-11 00:30N 35°22' E 024°29'0 0.0
2017-Sep-11 00:00N 35°22' E 024°29'0 0.0
2017-Sep-10 23:30N 35°22' E 024°29'0 0.0
2017-Sep-10 23:00N 35°22' E 024°29'0 0.0
2017-Sep-10 22:30N 35°22' E 024°29'0 0.0
2017-Sep-10 22:00N 35°22' E 024°29'0 0.0
2017-Sep-10 21:30N 35°22' E 024°29'0 0.0
2017-Sep-10 21:00N 35°22' E 024°29'0 0.0
2017-Sep-10 20:30N 35°22' E 024°29'0 0.0
2017-Sep-10 20:00N 35°22' E 024°29'0 0.0
2017-Sep-10 19:30N 35°22' E 024°29'0 0.0
2017-Sep-10 19:00N 35°22' E 024°29'0 0.0
2017-Sep-10 18:30N 35°22' E 024°29'0 0.0
2017-Sep-10 18:00N 35°22' E 024°29'0 0.0
2017-Sep-10 17:30N 35°22' E 024°29'0 0.0
2017-Sep-10 17:00N 35°22' E 024°29'0 0.0
2017-Sep-10 16:30N 35°22' E 024°29'0 0.0
2017-Sep-10 16:00N 35°22' E 024°29'0 0.0
2017-Sep-10 15:30N 35°22' E 024°29'0 0.0
2017-Sep-10 15:00N 35°22' E 024°29'0 0.0
2017-Sep-10 14:00N 35°22' E 024°29'0 0.0
2017-Sep-10 13:30N 35°22' E 024°29'0 0.0
2017-Sep-10 13:00N 35°22' E 024°29'0 0.0
2017-Sep-10 12:30N 35°22' E 024°29'0 0.0
2017-Sep-10 12:00N 35°22' E 024°29'0 0.0
2017-Sep-10 11:30N 35°22' E 024°29'0 0.0
2017-Sep-10 11:00N 35°22' E 024°29'0 0.0
2017-Sep-10 10:30N 35°22' E 024°29'0 0.0
2017-Sep-10 10:00N 35°22' E 024°29'0 0.0
2017-Sep-10 09:30N 35°22' E 024°29'0 0.0
2017-Sep-10 09:00N 35°22' E 024°29'0 0.0
2017-Sep-10 08:30N 35°22' E 024°29'0 0.0
2017-Sep-10 08:00N 35°22' E 024°29'0 0.0
2017-Sep-10 07:30N 35°22' E 024°29'0 0.0
2017-Sep-10 07:00N 35°22' E 024°29'0 0.0
2017-Sep-10 06:30N 35°22' E 024°29'0 0.0
2017-Sep-10 06:00N 35°22' E 024°29'0 0.0
2017-Sep-10 05:30N 35°22' E 024°29'0 0.0
2017-Sep-10 05:00N 35°22' E 024°29'0 0.0
2017-Sep-10 04:30N 35°22' E 024°29'0 0.0
2017-Sep-10 04:00N 35°22' E 024°29'0 0.0
2017-Sep-10 03:30N 35°22' E 024°29'0 0.0
2017-Sep-10 03:00N 35°22' E 024°29'0 0.0
2017-Sep-10 02:30N 35°22' E 024°29'0 0.0
2017-Sep-10 02:00N 35°22' E 024°29'0 0.0
2017-Sep-10 01:30N 35°22' E 024°29'0 0.0
2017-Sep-10 01:00N 35°22' E 024°29'0 0.0
2017-Sep-10 00:30N 35°22' E 024°29'0 0.0
2017-Sep-10 00:00N 35°22' E 024°29'0 0.0
2017-Sep-09 23:30N 35°22' E 024°29'0 0.0
2017-Sep-09 23:00N 35°22' E 024°29'0 0.0
2017-Sep-09 22:30N 35°22' E 024°29'0 0.0
2017-Sep-09 22:00N 35°22' E 024°29'0 0.0
2017-Sep-09 21:30N 35°22' E 024°29'0 0.0
2017-Sep-09 21:00N 35°22' E 024°29'0 0.0
2017-Sep-09 20:30N 35°22' E 024°29'0 0.5
2017-Sep-09 20:00N 35°22' E 024°29'510.5
2017-Sep-09 19:30N 35°27' E 024°33'611.7
2017-Sep-09 19:00N 35°32' E 024°36'611.7
2017-Sep-09 18:30N 35°37' E 024°40'611.7
2017-Sep-09 18:00N 35°42' E 024°44'611.6
2017-Sep-09 17:30N 35°47' E 024°48'611.6
2017-Sep-09 16:58N 35°52' E 024°52'511.6
2017-Sep-09 16:30N 35°56' E 024°56'711.7
2017-Sep-09 15:55N 36°02' E 025°00'511.9
2017-Sep-09 15:30N 36°06' E 025°04'611.9
2017-Sep-09 14:59N 36°11' E 025°08'511.6
2017-Sep-09 14:30N 36°16' E 025°12'48 3.6
2017-Sep-09 01:15N 36°51' E 024°30'711.7
2017-Sep-09 00:38N 36°46' E 024°24'211.2
2017-Sep-09 00:30N 36°44' E 024°24'  
Track history (hours):
 
Tides and Currents Weather Stations Pressure Air Temp Water Temp Dewpoint Dewpoint Depression Visibility Wind Speed Wind Dir Waves Ship Positions

Zefyros

Last reported at 2017-Sep-18 11:48 UTC. Time now 2017-Sep-21 18:02 UTC.
Position N 36°46' E 024°32'.

Length 77 m; draft 4.5 m.

Type: Ship. MMSI: 240485000.

Date/timePositionNaut miles runAvg speedWind from/ knotsBaromVisibWave heightAir tempDewpointWater temp
2017-Sep-18 11:48N 36°46' E 024°32'310.8
2017-Sep-18 11:30N 36°47' E 024°28'4 7.7
2017-Sep-18 10:58N 36°44' E 024°24'35 1.7
2017-Sep-17 14:11N 37°14' E 024°48'211.6
2017-Sep-17 14:00N 37°15' E 024°50'611.7
2017-Sep-17 13:30N 37°20' E 024°55'611.2
2017-Sep-17 13:00N 37°24' E 024°59'2 4.7
2017-Sep-17 12:29N 37°26' E 024°56'0 0.0
2017-Sep-17 11:11N 37°26' E 024°56'0 0.0
2017-Sep-17 11:00N 37°26' E 024°56'0 0.0
2017-Sep-17 09:02N 37°26' E 024°56'0 0.2
2017-Sep-17 09:00N 37°26' E 024°56'0 0.0
2017-Sep-17 08:30N 37°26' E 024°56'0 0.0
2017-Sep-17 07:58N 37°26' E 024°56'0 0.0
2017-Sep-17 07:30N 37°26' E 024°56'0 0.0
2017-Sep-17 07:00N 37°26' E 024°56'0 0.0
2017-Sep-17 06:30N 37°26' E 024°56'0 0.0
2017-Sep-17 06:00N 37°26' E 024°56'0 0.0
2017-Sep-17 05:30N 37°26' E 024°56'0 0.0
2017-Sep-17 04:59N 37°26' E 024°56'0 0.0
2017-Sep-17 04:30N 37°26' E 024°56'0 0.0
2017-Sep-17 03:57N 37°26' E 024°56'0 0.0
2017-Sep-17 03:30N 37°26' E 024°56'0 0.0
2017-Sep-17 02:56N 37°26' E 024°56'0 0.0
2017-Sep-17 02:25N 37°26' E 024°56'0 0.0
2017-Sep-17 02:00N 37°26' E 024°56'0 0.0
2017-Sep-17 01:30N 37°26' E 024°56'0 0.0
2017-Sep-17 00:54N 37°26' E 024°56'0 0.0
2017-Sep-16 23:28N 37°26' E 024°56'0 0.0
2017-Sep-16 23:00N 37°26' E 024°56'0 0.0
2017-Sep-16 22:30N 37°26' E 024°56'0 0.0
2017-Sep-16 22:00N 37°26' E 024°56'0 0.0
2017-Sep-16 21:30N 37°26' E 024°56'0 0.0
2017-Sep-16 21:00N 37°26' E 024°56'0 0.0
2017-Sep-16 20:30N 37°26' E 024°56'0 0.0
2017-Sep-16 19:59N 37°26' E 024°56'0 0.0
2017-Sep-16 19:30N 37°26' E 024°56'0 0.0
2017-Sep-16 19:00N 37°26' E 024°56'0 0.0
2017-Sep-16 18:30N 37°26' E 024°56'0 0.0
2017-Sep-16 17:49N 37°26' E 024°56'0 0.0
2017-Sep-16 17:30N 37°26' E 024°56'0 0.0
2017-Sep-16 17:00N 37°26' E 024°56'0 0.0
2017-Sep-16 16:30N 37°26' E 024°56'0 0.0
2017-Sep-16 16:00N 37°26' E 024°56'0 0.0
2017-Sep-16 15:30N 37°26' E 024°56'0 0.0
2017-Sep-16 14:56N 37°26' E 024°56'0 0.0
2017-Sep-16 14:30N 37°26' E 024°56'0 0.0
2017-Sep-16 13:54N 37°26' E 024°56'0 0.0
2017-Sep-16 13:30N 37°26' E 024°56'0 0.0
2017-Sep-16 13:00N 37°26' E 024°56'0 0.0
2017-Sep-16 12:27N 37°26' E 024°56'0 0.0
2017-Sep-16 12:00N 37°26' E 024°56'0 0.0
2017-Sep-16 11:27N 37°26' E 024°56'0 0.0
2017-Sep-16 10:31N 37°26' E 024°56'0 0.2
2017-Sep-16 10:29N 37°26' E 024°56'4 7.3
2017-Sep-16 10:00N 37°28' E 025°00'510.9
2017-Sep-16 09:30N 37°30' E 025°06'3 6.4
2017-Sep-16 09:00N 37°32' E 025°09'0 0.0
2017-Sep-16 08:30N 37°32' E 025°09'0 0.0
2017-Sep-16 08:00N 37°32' E 025°09'0 0.0
2017-Sep-16 07:30N 37°32' E 025°09'0 0.0
2017-Sep-16 07:00N 37°32' E 025°09'0 0.0
2017-Sep-16 06:30N 37°32' E 025°09'0 0.0
2017-Sep-16 06:00N 37°32' E 025°09'0 0.0
2017-Sep-16 05:30N 37°32' E 025°09'0 0.0
2017-Sep-16 05:00N 37°32' E 025°09'0 0.0
2017-Sep-16 04:30N 37°32' E 025°09'0 0.0
2017-Sep-16 04:00N 37°32' E 025°09'0 0.0
2017-Sep-16 03:30N 37°32' E 025°09'0 0.0
2017-Sep-16 03:00N 37°32' E 025°09'0 0.0
2017-Sep-16 02:30N 37°32' E 025°09'0 0.0
2017-Sep-16 02:00N 37°32' E 025°09'0 0.0
2017-Sep-16 01:30N 37°32' E 025°09'0 0.0
2017-Sep-16 01:00N 37°32' E 025°09'0 0.0
2017-Sep-16 00:30N 37°32' E 025°09'0 0.0
2017-Sep-16 00:00N 37°32' E 025°09'0 0.0
2017-Sep-15 23:31N 37°32' E 025°09'0 0.0
2017-Sep-15 23:01N 37°32' E 025°09'0 0.0
2017-Sep-15 22:30N 37°32' E 025°09'0 0.0
2017-Sep-15 22:00N 37°32' E 025°09'1 2.5
2017-Sep-15 21:30N 37°31' E 025°10'510.9
2017-Sep-15 21:01N 37°29' E 025°16'3 6.2
2017-Sep-15 20:30N 37°28' E 025°20'0 0.0
2017-Sep-15 20:00N 37°28' E 025°20'0 0.0
2017-Sep-15 19:30N 37°28' E 025°20'0 0.0
2017-Sep-15 19:00N 37°28' E 025°20'0 0.0
2017-Sep-15 18:30N 37°28' E 025°20'0 0.0
2017-Sep-15 18:01N 37°28' E 025°20'0 0.0
2017-Sep-15 17:31N 37°28' E 025°20'0 0.0
2017-Sep-15 17:00N 37°28' E 025°20'1 1.7
2017-Sep-15 16:30N 37°27' E 025°18'5 9.2
2017-Sep-15 16:00N 37°23' E 025°17'510.3
2017-Sep-15 15:30N 37°18' E 025°14'510.8
2017-Sep-15 15:00N 37°13' E 025°11'611.0
2017-Sep-15 14:30N 37°08' E 025°08'3 0.7
2017-Sep-15 10:01N 37°05' E 025°09'0 9.3
2017-Sep-15 10:00N 37°05' E 025°08'4 8.3
2017-Sep-15 09:29N 37°09' E 025°11'511.2
2017-Sep-15 09:00N 37°10' E 025°17'510.8
2017-Sep-15 08:30N 37°06' E 025°22'0 0.4
2017-Sep-15 08:01N 37°06' E 025°22'0 0.5
2017-Sep-15 07:30N 37°06' E 025°22'0 0.0
2017-Sep-15 07:01N 37°06' E 025°22'0 0.0
2017-Sep-15 06:31N 37°06' E 025°22'0 0.0
2017-Sep-15 06:00N 37°06' E 025°22'0 0.0
2017-Sep-15 05:31N 37°06' E 025°22'0 0.1
2017-Sep-15 05:01N 37°06' E 025°22'1 1.0
2017-Sep-15 04:31N 37°06' E 025°22'0 0.0
2017-Sep-15 04:00N 37°06' E 025°22'0 0.0
2017-Sep-15 03:31N 37°06' E 025°22'0 0.0
2017-Sep-15 03:00N 37°06' E 025°22'0 0.0
2017-Sep-15 02:31N 37°06' E 025°22'0 0.0
2017-Sep-15 02:00N 37°06' E 025°22'0 0.0
2017-Sep-15 01:30N 37°06' E 025°22'0 0.0
2017-Sep-15 01:01N 37°06' E 025°22'0 0.0
2017-Sep-15 00:30N 37°06' E 025°22'0 0.0
2017-Sep-15 00:01N 37°06' E 025°22'0 0.0
2017-Sep-14 23:31N 37°06' E 025°22'0 0.0
2017-Sep-14 23:00N 37°06' E 025°22'0 0.0
2017-Sep-14 22:30N 37°06' E 025°22'0 0.0
2017-Sep-14 22:00N 37°06' E 025°22'1 1.7
2017-Sep-14 21:31N 37°06' E 025°21'2 4.3
2017-Sep-14 21:01N 37°07' E 025°19'4 8.6
2017-Sep-14 20:31N 37°03' E 025°18'  
2017-Sep-12 16:10N 35°26' E 024°40'411.6
2017-Sep-12 15:48N 35°25' E 024°35'311.6
2017-Sep-12 15:30N 35°23' E 024°31'2 4.6
2017-Sep-12 15:00N 35°22' E 024°29'0 0.0
2017-Sep-12 14:30N 35°22' E 024°29'0 0.0
2017-Sep-12 14:01N 35°22' E 024°29'0 0.0
2017-Sep-12 13:30N 35°22' E 024°29'0 0.0
2017-Sep-12 13:00N 35°22' E 024°29'0 0.0
2017-Sep-12 12:30N 35°22' E 024°29'0 0.0
2017-Sep-12 12:01N 35°22' E 024°29'0 0.0
2017-Sep-12 11:30N 35°22' E 024°29'0 0.0
2017-Sep-12 11:00N 35°22' E 024°29'0 0.0
2017-Sep-12 10:30N 35°22' E 024°29'0 0.0
2017-Sep-12 10:00N 35°22' E 024°29'0 0.0
2017-Sep-12 09:30N 35°22' E 024°29'0 0.0
2017-Sep-12 09:00N 35°22' E 024°29'0 0.0
2017-Sep-12 08:30N 35°22' E 024°29'0 0.0
2017-Sep-12 08:00N 35°22' E 024°29'0 0.0
2017-Sep-12 07:30N 35°22' E 024°29'0 0.0
2017-Sep-12 07:01N 35°22' E 024°29'0 0.0
2017-Sep-12 06:30N 35°22' E 024°29'0 0.0
2017-Sep-12 06:00N 35°22' E 024°29'0 0.0
2017-Sep-12 05:30N 35°22' E 024°29'0 0.0
2017-Sep-12 05:00N 35°22' E 024°29'0 0.0
2017-Sep-12 04:30N 35°22' E 024°29'0 0.0
2017-Sep-12 04:00N 35°22' E 024°29'0 0.0
2017-Sep-12 03:30N 35°22' E 024°29'0 0.0
2017-Sep-12 03:00N 35°22' E 024°29'0 0.0
2017-Sep-12 02:30N 35°22' E 024°29'0 0.0
2017-Sep-12 02:00N 35°22' E 024°29'0 0.0
2017-Sep-12 01:30N 35°22' E 024°29'0 0.0
2017-Sep-12 01:00N 35°22' E 024°29'0 0.0
2017-Sep-12 00:30N 35°22' E 024°29'0 0.0
2017-Sep-12 00:00N 35°22' E 024°29'0 0.0
2017-Sep-11 23:30N 35°22' E 024°29'0 0.0
2017-Sep-11 23:00N 35°22' E 024°29'0 0.0
2017-Sep-11 22:30N 35°22' E 024°29'0 0.0
2017-Sep-11 22:00N 35°22' E 024°29'0 0.0
2017-Sep-11 21:30N 35°22' E 024°29'0 0.0
2017-Sep-11 21:00N 35°22' E 024°29'0 0.0
2017-Sep-11 20:30N 35°22' E 024°29'0 0.0
2017-Sep-11 20:00N 35°22' E 024°29'0 0.0
2017-Sep-11 19:30N 35°22' E 024°29'0 0.0
2017-Sep-11 19:00N 35°22' E 024°29'0 0.0
2017-Sep-11 18:30N 35°22' E 024°29'0 0.0
2017-Sep-11 18:00N 35°22' E 024°29'0 0.0
2017-Sep-11 17:30N 35°22' E 024°29'0 0.0
2017-Sep-11 17:00N 35°22' E 024°29'0 0.0
2017-Sep-11 16:30N 35°22' E 024°29'0 0.0
2017-Sep-11 16:00N 35°22' E 024°29'0 0.0
2017-Sep-11 15:30N 35°22' E 024°29'0 0.0
2017-Sep-11 15:00N 35°22' E 024°29'0 0.0
2017-Sep-11 14:30N 35°22' E 024°29'0 0.0
2017-Sep-11 14:00N 35°22' E 024°29'0 0.0
2017-Sep-11 13:30N 35°22' E 024°29'0 0.0
2017-Sep-11 13:00N 35°22' E 024°29'0 0.0
2017-Sep-11 12:30N 35°22' E 024°29'0 0.0
2017-Sep-11 12:00N 35°22' E 024°29'0 0.0
2017-Sep-11 11:30N 35°22' E 024°29'0 0.0
2017-Sep-11 11:00N 35°22' E 024°29'0 0.0
2017-Sep-11 10:30N 35°22' E 024°29'0 0.0
2017-Sep-11 10:00N 35°22' E 024°29'0 0.0
2017-Sep-11 09:30N 35°22' E 024°29'0 0.0
2017-Sep-11 09:00N 35°22' E 024°29'0 0.0
2017-Sep-11 08:30N 35°22' E 024°29'0 0.0
2017-Sep-11 08:00N 35°22' E 024°29'0 0.0
2017-Sep-11 07:30N 35°22' E 024°29'0 0.0
2017-Sep-11 07:00N 35°22' E 024°29'0 0.0
2017-Sep-11 06:30N 35°22' E 024°29'0 0.0
2017-Sep-11 06:00N 35°22' E 024°29'0 0.0
2017-Sep-11 05:30N 35°22' E 024°29'0 0.0
2017-Sep-11 05:00N 35°22' E 024°29'0 0.0
2017-Sep-11 04:30N 35°22' E 024°29'0 0.0
2017-Sep-11 04:00N 35°22' E 024°29'0 0.0
2017-Sep-11 03:30N 35°22' E 024°29'0 0.0
2017-Sep-11 03:00N 35°22' E 024°29'0 0.0
2017-Sep-11 02:30N 35°22' E 024°29'0 0.0
2017-Sep-11 02:00N 35°22' E 024°29'0 0.0
2017-Sep-11 01:30N 35°22' E 024°29'0 0.0
2017-Sep-11 01:00N 35°22' E 024°29'0 0.0
2017-Sep-11 00:30N 35°22' E 024°29'0 0.0
2017-Sep-11 00:00N 35°22' E 024°29'0 0.0
2017-Sep-10 23:30N 35°22' E 024°29'0 0.0
2017-Sep-10 23:00N 35°22' E 024°29'0 0.0
2017-Sep-10 22:30N 35°22' E 024°29'0 0.0
2017-Sep-10 22:00N 35°22' E 024°29'0 0.0
2017-Sep-10 21:30N 35°22' E 024°29'0 0.0
2017-Sep-10 21:00N 35°22' E 024°29'0 0.0
2017-Sep-10 20:30N 35°22' E 024°29'0 0.0
2017-Sep-10 20:00N 35°22' E 024°29'0 0.0
2017-Sep-10 19:30N 35°22' E 024°29'0 0.0
2017-Sep-10 19:00N 35°22' E 024°29'0 0.0
2017-Sep-10 18:30N 35°22' E 024°29'0 0.0
2017-Sep-10 18:00N 35°22' E 024°29'0 0.0
2017-Sep-10 17:30N 35°22' E 024°29'0 0.0
2017-Sep-10 17:00N 35°22' E 024°29'0 0.0
2017-Sep-10 16:30N 35°22' E 024°29'0 0.0
2017-Sep-10 16:00N 35°22' E 024°29'0 0.0
2017-Sep-10 15:30N 35°22' E 024°29'0 0.0
2017-Sep-10 15:00N 35°22' E 024°29'0 0.0
2017-Sep-10 14:00N 35°22' E 024°29'0 0.0
2017-Sep-10 13:30N 35°22' E 024°29'0 0.0
2017-Sep-10 13:00N 35°22' E 024°29'0 0.0
2017-Sep-10 12:30N 35°22' E 024°29'0 0.0
2017-Sep-10 12:00N 35°22' E 024°29'0 0.0
2017-Sep-10 11:30N 35°22' E 024°29'0 0.0
2017-Sep-10 11:00N 35°22' E 024°29'0 0.0
2017-Sep-10 10:30N 35°22' E 024°29'0 0.0
2017-Sep-10 10:00N 35°22' E 024°29'0 0.0
2017-Sep-10 09:30N 35°22' E 024°29'0 0.0
2017-Sep-10 09:00N 35°22' E 024°29'0 0.0
2017-Sep-10 08:30N 35°22' E 024°29'0 0.0
2017-Sep-10 08:00N 35°22' E 024°29'0 0.0
2017-Sep-10 07:30N 35°22' E 024°29'0 0.0
2017-Sep-10 07:00N 35°22' E 024°29'0 0.0
2017-Sep-10 06:30N 35°22' E 024°29'0 0.0
2017-Sep-10 06:00N 35°22' E 024°29'0 0.0
2017-Sep-10 05:30N 35°22' E 024°29'0 0.0
2017-Sep-10 05:00N 35°22' E 024°29'0 0.0
2017-Sep-10 04:30N 35°22' E 024°29'0 0.0
2017-Sep-10 04:00N 35°22' E 024°29'0 0.0
2017-Sep-10 03:30N 35°22' E 024°29'0 0.0
2017-Sep-10 03:00N 35°22' E 024°29'0 0.0
2017-Sep-10 02:30N 35°22' E 024°29'0 0.0
2017-Sep-10 02:00N 35°22' E 024°29'0 0.0
2017-Sep-10 01:30N 35°22' E 024°29'0 0.0
2017-Sep-10 01:00N 35°22' E 024°29'0 0.0
2017-Sep-10 00:30N 35°22' E 024°29'0 0.0
2017-Sep-10 00:00N 35°22' E 024°29'0 0.0
2017-Sep-09 23:30N 35°22' E 024°29'0 0.0
2017-Sep-09 23:00N 35°22' E 024°29'0 0.0
2017-Sep-09 22:30N 35°22' E 024°29'0 0.0
2017-Sep-09 22:00N 35°22' E 024°29'0 0.0
2017-Sep-09 21:30N 35°22' E 024°29'0 0.0
2017-Sep-09 21:00N 35°22' E 024°29'0 0.0
2017-Sep-09 20:30N 35°22' E 024°29'0 0.5
2017-Sep-09 20:00N 35°22' E 024°29'510.5
2017-Sep-09 19:30N 35°27' E 024°33'611.7
2017-Sep-09 19:00N 35°32' E 024°36'611.7
2017-Sep-09 18:30N 35°37' E 024°40'611.7
2017-Sep-09 18:00N 35°42' E 024°44'611.6
2017-Sep-09 17:30N 35°47' E 024°48'611.6
2017-Sep-09 16:58N 35°52' E 024°52'511.6
2017-Sep-09 16:30N 35°56' E 024°56'711.7
2017-Sep-09 15:55N 36°02' E 025°00'511.9
2017-Sep-09 15:30N 36°06' E 025°04'611.9
2017-Sep-09 14:59N 36°11' E 025°08'511.6
2017-Sep-09 14:30N 36°16' E 025°12'48 3.6
2017-Sep-09 01:15N 36°51' E 024°30'711.7
2017-Sep-09 00:38N 36°46' E 024°24'211.2
2017-Sep-09 00:30N 36°44' E 024°24'  

Dump ship's entire track history